sensor_id;sensor_type;location;lat;lon;timestamp;temperature;humidity
65864;SHT30;52639;51.180;20.460;2022-07-04T00:02:00;13.34;84.48
65864;SHT30;52639;51.180;20.460;2022-07-04T00:06:04;13.26;84.59
65864;SHT30;52639;51.180;20.460;2022-07-04T00:10:08;13.23;84.60
65864;SHT30;52639;51.180;20.460;2022-07-04T00:14:11;13.20;84.62
65864;SHT30;52639;51.180;20.460;2022-07-04T00:18:13;13.17;84.62
65864;SHT30;52639;51.180;20.460;2022-07-04T00:22:18;13.14;84.62
65864;SHT30;52639;51.180;20.460;2022-07-04T00:26:20;13.06;84.81
65864;SHT30;52639;51.180;20.460;2022-07-04T00:30:23;13.03;84.82
65864;SHT30;52639;51.180;20.460;2022-07-04T00:34:26;13.02;84.81
65864;SHT30;52639;51.180;20.460;2022-07-04T00:38:30;12.99;84.80
65864;SHT30;52639;51.180;20.460;2022-07-04T00:42:33;12.93;84.88
65864;SHT30;52639;51.180;20.460;2022-07-04T00:46:36;12.90;84.95
65864;SHT30;52639;51.180;20.460;2022-07-04T00:50:38;12.85;84.98
65864;SHT30;52639;51.180;20.460;2022-07-04T00:54:43;12.83;85.00
65864;SHT30;52639;51.180;20.460;2022-07-04T00:58:46;12.79;84.97
65864;SHT30;52639;51.180;20.460;2022-07-04T01:02:49;12.75;85.00
65864;SHT30;52639;51.180;20.460;2022-07-04T01:06:52;12.73;85.09
65864;SHT30;52639;51.180;20.460;2022-07-04T01:10:57;12.70;85.09
65864;SHT30;52639;51.180;20.460;2022-07-04T01:14:59;12.70;85.06
65864;SHT30;52639;51.180;20.460;2022-07-04T01:19:02;12.65;85.16
65864;SHT30;52639;51.180;20.460;2022-07-04T01:23:06;12.60;85.25
65864;SHT30;52639;51.180;20.460;2022-07-04T01:27:09;12.58;85.29
65864;SHT30;52639;51.180;20.460;2022-07-04T01:31:12;12.56;85.25
65864;SHT30;52639;51.180;20.460;2022-07-04T01:35:14;12.55;85.30
65864;SHT30;52639;51.180;20.460;2022-07-04T01:39:18;12.45;85.38
65864;SHT30;52639;51.180;20.460;2022-07-04T01:43:21;12.42;85.48
65864;SHT30;52639;51.180;20.460;2022-07-04T01:47:23;12.37;85.60
65864;SHT30;52639;51.180;20.460;2022-07-04T01:51:29;12.35;85.56
65864;SHT30;52639;51.180;20.460;2022-07-04T01:55:33;12.37;85.53
65864;SHT30;52639;51.180;20.460;2022-07-04T01:59:36;12.34;85.54
65864;SHT30;52639;51.180;20.460;2022-07-04T02:03:56;12.28;85.61
65864;SHT30;52639;51.180;20.460;2022-07-04T02:07:59;12.22;85.59
65864;SHT30;52639;51.180;20.460;2022-07-04T02:12:04;12.22;85.59
65864;SHT30;52639;51.180;20.460;2022-07-04T02:16:25;12.20;85.58
65864;SHT30;52639;51.180;20.460;2022-07-04T02:20:28;12.08;85.72
65864;SHT30;52639;51.180;20.460;2022-07-04T02:24:31;12.08;85.77
65864;SHT30;52639;51.180;20.460;2022-07-04T02:28:35;12.05;85.70
65864;SHT30;52639;51.180;20.460;2022-07-04T02:32:38;12.02;85.73
65864;SHT30;52639;51.180;20.460;2022-07-04T02:36:41;12.07;85.62
65864;SHT30;52639;51.180;20.460;2022-07-04T02:40:44;12.08;85.52
65864;SHT30;52639;51.180;20.460;2022-07-04T02:44:48;12.07;85.55
65864;SHT30;52639;51.180;20.460;2022-07-04T02:48:51;12.11;85.50
65864;SHT30;52639;51.180;20.460;2022-07-04T02:52:53;12.15;85.51
65864;SHT30;52639;51.180;20.460;2022-07-04T02:56:56;12.17;85.40
65864;SHT30;52639;51.180;20.460;2022-07-04T03:01:01;12.20;85.40
65864;SHT30;52639;51.180;20.460;2022-07-04T03:05:05;12.25;85.33
65864;SHT30;52639;51.180;20.460;2022-07-04T03:09:07;12.32;85.20
65864;SHT30;52639;51.180;20.460;2022-07-04T03:13:10;12.35;85.20
65864;SHT30;52639;51.180;20.460;2022-07-04T03:17:14;12.44;85.11
65864;SHT30;52639;51.180;20.460;2022-07-04T03:21:17;12.46;85.06
65864;SHT30;52639;51.180;20.460;2022-07-04T03:25:20;12.49;85.06
65864;SHT30;52639;51.180;20.460;2022-07-04T03:29:23;12.56;84.92
65864;SHT30;52639;51.180;20.460;2022-07-04T03:33:28;12.63;84.72
65864;SHT30;52639;51.180;20.460;2022-07-04T03:37:31;12.76;84.67
65864;SHT30;52639;51.180;20.460;2022-07-04T03:41:33;12.86;84.49
65864;SHT30;52639;51.180;20.460;2022-07-04T03:45:37;13.00;84.35
65864;SHT30;52639;51.180;20.460;2022-07-04T03:49:41;13.12;84.13
65864;SHT30;52639;51.180;20.460;2022-07-04T03:53:44;13.28;84.09
65864;SHT30;52639;51.180;20.460;2022-07-04T03:57:47;13.44;84.00
65864;SHT30;52639;51.180;20.460;2022-07-04T04:01:50;13.61;83.85
65864;SHT30;52639;51.180;20.460;2022-07-04T04:05:55;13.82;83.63
65864;SHT30;52639;51.180;20.460;2022-07-04T04:09:57;13.98;83.57
65864;SHT30;52639;51.180;20.460;2022-07-04T04:13:59;14.18;83.42
65864;SHT30;52639;51.180;20.460;2022-07-04T04:18:02;14.51;83.11
65864;SHT30;52639;51.180;20.460;2022-07-04T04:22:07;14.69;82.96
65864;SHT30;52639;51.180;20.460;2022-07-04T04:26:09;14.92;83.05
65864;SHT30;52639;51.180;20.460;2022-07-04T04:30:13;15.17;82.94
65864;SHT30;52639;51.180;20.460;2022-07-04T04:34:16;15.34;82.93
65864;SHT30;52639;51.180;20.460;2022-07-04T04:38:20;15.57;82.93
65864;SHT30;52639;51.180;20.460;2022-07-04T04:42:23;15.95;82.65
65864;SHT30;52639;51.180;20.460;2022-07-04T04:46:26;16.62;81.32
65864;SHT30;52639;51.180;20.460;2022-07-04T04:50:29;16.84;81.35
65864;SHT30;52639;51.180;20.460;2022-07-04T04:54:33;17.32;80.93
65864;SHT30;52639;51.180;20.460;2022-07-04T04:58:36;18.12;79.44
65864;SHT30;52639;51.180;20.460;2022-07-04T05:02:40;18.05;80.34
65864;SHT30;52639;51.180;20.460;2022-07-04T05:06:43;18.55;79.83
65864;SHT30;52639;51.180;20.460;2022-07-04T05:10:47;19.28;78.66
65864;SHT30;52639;51.180;20.460;2022-07-04T05:14:50;21.05;74.83
65864;SHT30;52639;51.180;20.460;2022-07-04T05:18:53;20.80;75.12
65864;SHT30;52639;51.180;20.460;2022-07-04T05:22:55;20.04;77.58
65864;SHT30;52639;51.180;20.460;2022-07-04T05:26:59;19.92;78.52
65864;SHT30;52639;51.180;20.460;2022-07-04T05:31:02;19.89;78.94
65864;SHT30;52639;51.180;20.460;2022-07-04T05:35:05;19.90;79.09
65864;SHT30;52639;51.180;20.460;2022-07-04T05:39:08;19.95;79.22
65864;SHT30;52639;51.180;20.460;2022-07-04T05:43:12;20.12;79.05
65864;SHT30;52639;51.180;20.460;2022-07-04T05:47:15;20.23;78.93
65864;SHT30;52639;51.180;20.460;2022-07-04T05:51:18;20.34;78.89
65864;SHT30;52639;51.180;20.460;2022-07-04T05:55:21;20.64;78.16
65864;SHT30;52639;51.180;20.460;2022-07-04T05:59:25;21.10;77.27
65864;SHT30;52639;51.180;20.460;2022-07-04T06:03:28;21.85;75.06
65864;SHT30;52639;51.180;20.460;2022-07-04T06:07:31;21.99;74.98
65864;SHT30;52639;51.180;20.460;2022-07-04T06:11:34;22.63;74.06
65864;SHT30;52639;51.180;20.460;2022-07-04T06:15:38;30.43;53.00
65864;SHT30;52639;51.180;20.460;2022-07-04T06:19:42;35.82;41.51
65864;SHT30;52639;51.180;20.460;2022-07-04T06:23:45;39.49;36.07
65864;SHT30;52639;51.180;20.460;2022-07-04T06:27:50;41.09;34.25
65864;SHT30;52639;51.180;20.460;2022-07-04T06:31:55;42.83;32.24
65864;SHT30;52639;51.180;20.460;2022-07-04T06:35:59;43.94;31.15
65864;SHT30;52639;51.180;20.460;2022-07-04T06:40:04;44.45;30.76
65864;SHT30;52639;51.180;20.460;2022-07-04T06:44:08;45.42;29.66
65864;SHT30;52639;51.180;20.460;2022-07-04T06:48:12;45.31;29.45
65864;SHT30;52639;51.180;20.460;2022-07-04T06:52:15;45.43;29.37
65864;SHT30;52639;51.180;20.460;2022-07-04T06:56:20;45.06;29.62
65864;SHT30;52639;51.180;20.460;2022-07-04T07:00:24;45.70;28.84
65864;SHT30;52639;51.180;20.460;2022-07-04T07:04:34;44.83;30.03
65864;SHT30;52639;51.180;20.460;2022-07-04T07:08:39;43.76;31.17
65864;SHT30;52639;51.180;20.460;2022-07-04T07:12:44;41.32;34.45
65864;SHT30;52639;51.180;20.460;2022-07-04T07:16:48;40.76;35.22
65864;SHT30;52639;51.180;20.460;2022-07-04T07:20:52;39.42;37.17
65864;SHT30;52639;51.180;20.460;2022-07-04T07:24:56;38.24;38.75
65864;SHT30;52639;51.180;20.460;2022-07-04T07:28:59;37.68;39.25
65864;SHT30;52639;51.180;20.460;2022-07-04T07:33:04;37.35;39.52
65864;SHT30;52639;51.180;20.460;2022-07-04T07:37:10;37.38;39.28
65864;SHT30;52639;51.180;20.460;2022-07-04T07:41:15;36.43;40.61
65864;SHT30;52639;51.180;20.460;2022-07-04T07:45:25;37.06;39.47
65864;SHT30;52639;51.180;20.460;2022-07-04T07:49:29;36.90;39.55
65864;SHT30;52639;51.180;20.460;2022-07-04T07:53:35;36.08;40.89
65864;SHT30;52639;51.180;20.460;2022-07-04T07:57:44;35.70;41.26
65864;SHT30;52639;51.180;20.460;2022-07-04T08:02:13;35.59;41.00
65864;SHT30;52639;51.180;20.460;2022-07-04T08:06:53;36.43;39.93
65864;SHT30;52639;51.180;20.460;2022-07-04T08:11:08;35.74;40.50
65864;SHT30;52639;51.180;20.460;2022-07-04T08:15:16;35.65;41.03
65864;SHT30;52639;51.180;20.460;2022-07-04T08:19:19;35.17;41.56
65864;SHT30;52639;51.180;20.460;2022-07-04T08:23:24;35.00;41.52
65864;SHT30;52639;51.180;20.460;2022-07-04T08:28:05;35.44;39.02
65864;SHT30;52639;51.180;20.460;2022-07-04T08:32:10;35.33;40.85
65864;SHT30;52639;51.180;20.460;2022-07-04T08:36:13;35.40;40.98
65864;SHT30;52639;51.180;20.460;2022-07-04T08:40:20;35.66;39.82
65864;SHT30;52639;51.180;20.460;2022-07-04T08:44:30;34.49;41.64
65864;SHT30;52639;51.180;20.460;2022-07-04T08:48:34;33.95;39.55
65864;SHT30;52639;51.180;20.460;2022-07-04T08:52:46;33.72;43.44
65864;SHT30;52639;51.180;20.460;2022-07-04T08:56:52;33.99;42.14
65864;SHT30;52639;51.180;20.460;2022-07-04T09:01:27;32.97;44.05
65864;SHT30;52639;51.180;20.460;2022-07-04T09:05:35;32.78;44.04
65864;SHT30;52639;51.180;20.460;2022-07-04T09:09:40;33.18;42.93
65864;SHT30;52639;51.180;20.460;2022-07-04T09:13:44;32.87;44.18
65864;SHT30;52639;51.180;20.460;2022-07-04T09:17:53;32.94;43.67
65864;SHT30;52639;51.180;20.460;2022-07-04T09:22:03;32.90;43.26
65864;SHT30;52639;51.180;20.460;2022-07-04T09:26:13;32.60;43.49
65864;SHT30;52639;51.180;20.460;2022-07-04T09:30:18;32.32;43.65
65864;SHT30;52639;51.180;20.460;2022-07-04T09:34:23;32.08;43.93
65864;SHT30;52639;51.180;20.460;2022-07-04T09:38:27;31.63;44.68
65864;SHT30;52639;51.180;20.460;2022-07-04T09:42:35;31.76;44.12
65864;SHT30;52639;51.180;20.460;2022-07-04T09:46:38;31.28;45.23
65864;SHT30;52639;51.180;20.460;2022-07-04T09:50:43;31.10;45.01
65864;SHT30;52639;51.180;20.460;2022-07-04T09:54:47;30.88;45.31
65864;SHT30;52639;51.180;20.460;2022-07-04T09:58:56;30.61;45.30
65864;SHT30;52639;51.180;20.460;2022-07-04T10:03:18;30.40;45.73
65864;SHT30;52639;51.180;20.460;2022-07-04T10:07:34;30.24;46.20
65864;SHT30;52639;51.180;20.460;2022-07-04T10:11:43;29.89;46.36
65864;SHT30;52639;51.180;20.460;2022-07-04T10:15:45;29.54;47.04
65864;SHT30;52639;51.180;20.460;2022-07-04T10:19:48;29.63;46.74
65864;SHT30;52639;51.180;20.460;2022-07-04T10:23:55;29.58;46.58
65864;SHT30;52639;51.180;20.460;2022-07-04T10:27:58;29.35;47.01
65864;SHT30;52639;51.180;20.460;2022-07-04T10:32:01;29.22;47.05
65864;SHT30;52639;51.180;20.460;2022-07-04T10:36:14;29.17;46.35
65864;SHT30;52639;51.180;20.460;2022-07-04T10:40:43;28.94;46.16
65864;SHT30;52639;51.180;20.460;2022-07-04T10:44:48;28.98;46.32
65864;SHT30;52639;51.180;20.460;2022-07-04T10:48:53;29.11;45.80
65864;SHT30;52639;51.180;20.460;2022-07-04T10:53:22;29.17;46.06
65864;SHT30;52639;51.180;20.460;2022-07-04T10:57:27;29.21;46.02
65864;SHT30;52639;51.180;20.460;2022-07-04T11:01:31;29.22;45.94
65864;SHT30;52639;51.180;20.460;2022-07-04T11:05:34;29.12;46.47
65864;SHT30;52639;51.180;20.460;2022-07-04T11:09:37;29.03;46.49
65864;SHT30;52639;51.180;20.460;2022-07-04T11:13:41;29.24;46.26
65864;SHT30;52639;51.180;20.460;2022-07-04T11:17:45;29.37;46.46
65864;SHT30;52639;51.180;20.460;2022-07-04T11:21:49;29.39;45.96
65864;SHT30;52639;51.180;20.460;2022-07-04T11:25:52;29.51;45.30
65864;SHT30;52639;51.180;20.460;2022-07-04T11:29:59;29.66;45.43
65864;SHT30;52639;51.180;20.460;2022-07-04T11:34:02;29.95;45.21
65864;SHT30;52639;51.180;20.460;2022-07-04T11:38:06;30.20;44.48
65864;SHT30;52639;51.180;20.460;2022-07-04T11:42:09;30.20;45.00
65864;SHT30;52639;51.180;20.460;2022-07-04T11:46:31;30.36;45.28
65864;SHT30;52639;51.180;20.460;2022-07-04T11:50:34;30.39;44.91
65864;SHT30;52639;51.180;20.460;2022-07-04T11:54:39;30.08;45.54
65864;SHT30;52639;51.180;20.460;2022-07-04T11:58:42;30.13;45.55
65864;SHT30;52639;51.180;20.460;2022-07-04T12:02:50;30.17;45.66
65864;SHT30;52639;51.180;20.460;2022-07-04T12:06:53;29.89;46.41
65864;SHT30;52639;51.180;20.460;2022-07-04T12:10:56;29.17;47.33
65864;SHT30;52639;51.180;20.460;2022-07-04T12:15:04;29.10;46.78
65864;SHT30;52639;51.180;20.460;2022-07-04T12:19:10;29.17;46.57
65864;SHT30;52639;51.180;20.460;2022-07-04T12:23:12;29.24;46.43
65864;SHT30;52639;51.180;20.460;2022-07-04T12:27:19;29.24;46.62
65864;SHT30;52639;51.180;20.460;2022-07-04T12:31:37;29.15;47.30
65864;SHT30;52639;51.180;20.460;2022-07-04T12:35:45;29.05;46.86
65864;SHT30;52639;51.180;20.460;2022-07-04T12:39:49;28.90;46.70
65864;SHT30;52639;51.180;20.460;2022-07-04T12:43:52;28.83;46.85
65864;SHT30;52639;51.180;20.460;2022-07-04T12:47:55;28.75;46.67
65864;SHT30;52639;51.180;20.460;2022-07-04T12:52:08;28.59;46.64
65864;SHT30;52639;51.180;20.460;2022-07-04T12:56:27;28.54;47.07
65864;SHT30;52639;51.180;20.460;2022-07-04T13:00:32;28.44;47.57
65864;SHT30;52639;51.180;20.460;2022-07-04T13:04:36;28.30;47.67
65864;SHT30;52639;51.180;20.460;2022-07-04T13:08:43;28.40;46.92
65864;SHT30;52639;51.180;20.460;2022-07-04T13:12:47;28.46;46.70
65864;SHT30;52639;51.180;20.460;2022-07-04T13:16:52;28.64;46.33
65864;SHT30;52639;51.180;20.460;2022-07-04T13:20:56;28.80;46.52
65864;SHT30;52639;51.180;20.460;2022-07-04T13:25:01;28.80;47.62
65864;SHT30;52639;51.180;20.460;2022-07-04T13:29:04;28.84;47.03
65864;SHT30;52639;51.180;20.460;2022-07-04T13:33:08;28.73;47.32
65864;SHT30;52639;51.180;20.460;2022-07-04T13:37:12;28.88;47.44
65864;SHT30;52639;51.180;20.460;2022-07-04T13:41:19;29.03;47.42
65864;SHT30;52639;51.180;20.460;2022-07-04T13:45:23;29.14;47.20
65864;SHT30;52639;51.180;20.460;2022-07-04T13:49:29;29.29;47.23
65864;SHT30;52639;51.180;20.460;2022-07-04T13:53:32;29.19;47.27
65864;SHT30;52639;51.180;20.460;2022-07-04T13:57:38;29.18;47.32
65864;SHT30;52639;51.180;20.460;2022-07-04T14:01:41;29.22;46.78
65864;SHT30;52639;51.180;20.460;2022-07-04T14:05:44;29.07;46.79
65864;SHT30;52639;51.180;20.460;2022-07-04T14:09:48;28.98;46.76
65864;SHT30;52639;51.180;20.460;2022-07-04T14:13:53;28.95;46.71
65864;SHT30;52639;51.180;20.460;2022-07-04T14:17:56;28.77;47.60
65864;SHT30;52639;51.180;20.460;2022-07-04T14:22:01;28.51;48.04
65864;SHT30;52639;51.180;20.460;2022-07-04T14:26:16;28.33;48.09
65864;SHT30;52639;51.180;20.460;2022-07-04T14:30:25;28.30;47.82
65864;SHT30;52639;51.180;20.460;2022-07-04T14:34:30;28.12;47.87
65864;SHT30;52639;51.180;20.460;2022-07-04T14:38:38;27.79;48.74
65864;SHT30;52639;51.180;20.460;2022-07-04T14:42:45;27.49;49.53
65864;SHT30;52639;51.180;20.460;2022-07-04T14:46:52;27.31;50.17
65864;SHT30;52639;51.180;20.460;2022-07-04T14:50:57;27.21;50.68
65864;SHT30;52639;51.180;20.460;2022-07-04T14:55:06;27.16;51.37
65864;SHT30;52639;51.180;20.460;2022-07-04T14:59:11;27.01;51.99
65864;SHT30;52639;51.180;20.460;2022-07-04T15:03:19;26.80;52.67
65864;SHT30;52639;51.180;20.460;2022-07-04T15:07:23;26.57;53.33
65864;SHT30;52639;51.180;20.460;2022-07-04T15:11:27;26.39;54.02
65864;SHT30;52639;51.180;20.460;2022-07-04T15:15:30;26.39;54.17
65864;SHT30;52639;51.180;20.460;2022-07-04T15:19:35;26.36;54.09
65864;SHT30;52639;51.180;20.460;2022-07-04T15:23:58;26.25;54.23
65864;SHT30;52639;51.180;20.460;2022-07-04T15:28:15;26.13;54.66
65864;SHT30;52639;51.180;20.460;2022-07-04T15:32:18;26.10;54.52
65864;SHT30;52639;51.180;20.460;2022-07-04T15:36:27;26.23;53.83
65864;SHT30;52639;51.180;20.460;2022-07-04T15:40:31;26.37;53.47
65864;SHT30;52639;51.180;20.460;2022-07-04T15:44:37;26.53;53.12
65864;SHT30;52639;51.180;20.460;2022-07-04T15:48:41;26.50;53.03
65864;SHT30;52639;51.180;20.460;2022-07-04T15:52:48;26.43;53.04
65864;SHT30;52639;51.180;20.460;2022-07-04T15:56:51;26.43;53.17
65864;SHT30;52639;51.180;20.460;2022-07-04T16:00:55;26.46;53.07
65864;SHT30;52639;51.180;20.460;2022-07-04T16:04:58;26.53;53.02
65864;SHT30;52639;51.180;20.460;2022-07-04T16:09:03;26.65;52.97
65864;SHT30;52639;51.180;20.460;2022-07-04T16:13:06;26.71;52.90
65864;SHT30;52639;51.180;20.460;2022-07-04T16:17:09;26.69;52.87
65864;SHT30;52639;51.180;20.460;2022-07-04T16:21:15;26.69;52.79
65864;SHT30;52639;51.180;20.460;2022-07-04T16:25:20;26.67;52.71
65864;SHT30;52639;51.180;20.460;2022-07-04T16:29:23;26.67;52.39
65864;SHT30;52639;51.180;20.460;2022-07-04T16:33:26;26.63;52.34
65864;SHT30;52639;51.180;20.460;2022-07-04T16:37:29;26.63;52.30
65864;SHT30;52639;51.180;20.460;2022-07-04T16:41:34;26.61;52.30
65864;SHT30;52639;51.180;20.460;2022-07-04T16:45:37;26.65;52.05
65864;SHT30;52639;51.180;20.460;2022-07-04T16:49:41;26.70;51.89
65864;SHT30;52639;51.180;20.460;2022-07-04T16:53:50;26.73;51.92
65864;SHT30;52639;51.180;20.460;2022-07-04T16:57:55;26.69;52.29
65864;SHT30;52639;51.180;20.460;2022-07-04T17:01:58;26.67;52.46
65864;SHT30;52639;51.180;20.460;2022-07-04T17:06:02;26.64;52.61
65864;SHT30;52639;51.180;20.460;2022-07-04T17:10:06;26.64;52.64
65864;SHT30;52639;51.180;20.460;2022-07-04T17:14:12;26.54;52.87
65864;SHT30;52639;51.180;20.460;2022-07-04T17:18:15;26.40;53.23
65864;SHT30;52639;51.180;20.460;2022-07-04T17:22:18;26.35;53.39
65864;SHT30;52639;51.180;20.460;2022-07-04T17:26:29;26.29;53.64
65864;SHT30;52639;51.180;20.460;2022-07-04T17:30:52;26.13;54.19
65864;SHT30;52639;51.180;20.460;2022-07-04T17:34:56;25.97;55.20
65864;SHT30;52639;51.180;20.460;2022-07-04T17:38:59;25.61;56.80
65864;SHT30;52639;51.180;20.460;2022-07-04T17:43:02;25.31;58.16
65864;SHT30;52639;51.180;20.460;2022-07-04T17:47:07;25.24;58.78
65864;SHT30;52639;51.180;20.460;2022-07-04T17:51:09;25.25;58.80
65864;SHT30;52639;51.180;20.460;2022-07-04T17:55:13;25.22;58.68
65864;SHT30;52639;51.180;20.460;2022-07-04T17:59:16;25.14;58.57
65864;SHT30;52639;51.180;20.460;2022-07-04T18:03:33;25.01;58.71
65864;SHT30;52639;51.180;20.460;2022-07-04T18:07:37;24.86;58.95
65864;SHT30;52639;51.180;20.460;2022-07-04T18:11:41;24.60;59.72
65864;SHT30;52639;51.180;20.460;2022-07-04T18:15:44;24.41;60.45
65864;SHT30;52639;51.180;20.460;2022-07-04T18:19:48;24.17;61.34
65864;SHT30;52639;51.180;20.460;2022-07-04T18:23:51;23.96;61.84
65864;SHT30;52639;51.180;20.460;2022-07-04T18:27:54;23.66;62.82
65864;SHT30;52639;51.180;20.460;2022-07-04T18:31:56;23.34;63.71
65864;SHT30;52639;51.180;20.460;2022-07-04T18:36:02;23.08;64.38
65864;SHT30;52639;51.180;20.460;2022-07-04T18:40:07;22.93;64.76
65864;SHT30;52639;51.180;20.460;2022-07-04T18:44:31;22.77;65.14
65864;SHT30;52639;51.180;20.460;2022-07-04T18:48:34;22.60;65.71
65864;SHT30;52639;51.180;20.460;2022-07-04T18:52:39;22.44;66.20
65864;SHT30;52639;51.180;20.460;2022-07-04T18:56:42;22.26;66.52
65864;SHT30;52639;51.180;20.460;2022-07-04T19:00:45;22.09;66.98
65864;SHT30;52639;51.180;20.460;2022-07-04T19:04:49;21.86;67.56
65864;SHT30;52639;51.180;20.460;2022-07-04T19:08:54;21.66;68.04
65864;SHT30;52639;51.180;20.460;2022-07-04T19:12:56;21.49;68.30
65864;SHT30;52639;51.180;20.460;2022-07-04T19:17:00;21.34;68.65
65864;SHT30;52639;51.180;20.460;2022-07-04T19:21:05;21.12;69.15
65864;SHT30;52639;51.180;20.460;2022-07-04T19:25:11;20.98;69.54
65864;SHT30;52639;51.180;20.460;2022-07-04T19:29:13;20.79;69.85
65864;SHT30;52639;51.180;20.460;2022-07-04T19:33:17;20.69;70.27
65864;SHT30;52639;51.180;20.460;2022-07-04T19:37:22;20.50;70.58
65864;SHT30;52639;51.180;20.460;2022-07-04T19:41:28;20.34;71.02
65864;SHT30;52639;51.180;20.460;2022-07-04T19:45:31;20.20;71.27
65864;SHT30;52639;51.180;20.460;2022-07-04T19:49:34;20.09;71.61
65864;SHT30;52639;51.180;20.460;2022-07-04T19:53:39;19.98;71.92
65864;SHT30;52639;51.180;20.460;2022-07-04T19:57:53;19.99;72.11
65864;SHT30;52639;51.180;20.460;2022-07-04T20:01:57;19.98;72.11
65864;SHT30;52639;51.180;20.460;2022-07-04T20:06:03;19.98;72.24
65864;SHT30;52639;51.180;20.460;2022-07-04T20:10:09;19.98;72.36
65864;SHT30;52639;51.180;20.460;2022-07-04T20:14:16;19.89;72.62
65864;SHT30;52639;51.180;20.460;2022-07-04T20:18:19;19.85;72.81
65864;SHT30;52639;51.180;20.460;2022-07-04T20:22:22;19.76;73.19
65864;SHT30;52639;51.180;20.460;2022-07-04T20:26:26;19.75;73.44
65864;SHT30;52639;51.180;20.460;2022-07-04T20:30:32;19.72;73.77
65864;SHT30;52639;51.180;20.460;2022-07-04T20:34:43;19.69;73.89
65864;SHT30;52639;51.180;20.460;2022-07-04T20:39:05;19.64;73.90
65864;SHT30;52639;51.180;20.460;2022-07-04T20:43:08;19.58;74.14
65864;SHT30;52639;51.180;20.460;2022-07-04T20:47:13;19.53;74.48
65864;SHT30;52639;51.180;20.460;2022-07-04T20:51:17;19.45;74.66
65864;SHT30;52639;51.180;20.460;2022-07-04T20:55:21;19.43;74.89
65864;SHT30;52639;51.180;20.460;2022-07-04T20:59:25;19.39;74.97
65864;SHT30;52639;51.180;20.460;2022-07-04T21:03:30;19.39;75.21
65864;SHT30;52639;51.180;20.460;2022-07-04T21:07:34;19.38;75.27
65864;SHT30;52639;51.180;20.460;2022-07-04T21:11:37;19.32;75.56
65864;SHT30;52639;51.180;20.460;2022-07-04T21:15:41;19.25;75.86
65864;SHT30;52639;51.180;20.460;2022-07-04T21:19:45;19.20;76.25
65864;SHT30;52639;51.180;20.460;2022-07-04T21:23:48;19.06;76.68
65864;SHT30;52639;51.180;20.460;2022-07-04T21:27:51;18.93;77.03
65864;SHT30;52639;51.180;20.460;2022-07-04T21:31:53;18.84;77.36
65864;SHT30;52639;51.180;20.460;2022-07-04T21:36:01;18.71;77.72
65864;SHT30;52639;51.180;20.460;2022-07-04T21:40:04;18.57;78.06
65864;SHT30;52639;51.180;20.460;2022-07-04T21:44:10;18.46;78.35
65864;SHT30;52639;51.180;20.460;2022-07-04T21:48:13;18.36;78.46
65864;SHT30;52639;51.180;20.460;2022-07-04T21:52:17;18.29;78.68
65864;SHT30;52639;51.180;20.460;2022-07-04T21:56:20;18.15;78.94
65864;SHT30;52639;51.180;20.460;2022-07-04T22:00:23;18.01;79.23
65864;SHT30;52639;51.180;20.460;2022-07-04T22:04:26;17.88;79.51
65864;SHT30;52639;51.180;20.460;2022-07-04T22:08:30;17.78;79.66
65864;SHT30;52639;51.180;20.460;2022-07-04T22:12:33;17.72;79.66
65864;SHT30;52639;51.180;20.460;2022-07-04T22:16:36;17.72;79.64
65864;SHT30;52639;51.180;20.460;2022-07-04T22:20:39;17.60;79.84
65864;SHT30;52639;51.180;20.460;2022-07-04T22:24:44;17.51;80.06
65864;SHT30;52639;51.180;20.460;2022-07-04T22:28:46;17.38;80.31
65864;SHT30;52639;51.180;20.460;2022-07-04T22:32:49;17.30;80.50
65864;SHT30;52639;51.180;20.460;2022-07-04T22:36:51;17.26;80.62
65864;SHT30;52639;51.180;20.460;2022-07-04T22:40:56;17.14;80.82
65864;SHT30;52639;51.180;20.460;2022-07-04T22:44:58;17.07;80.98
65864;SHT30;52639;51.180;20.460;2022-07-04T22:49:01;16.99;81.13
65864;SHT30;52639;51.180;20.460;2022-07-04T22:53:04;16.96;81.26
65864;SHT30;52639;51.180;20.460;2022-07-04T22:57:29;16.90;81.31
65864;SHT30;52639;51.180;20.460;2022-07-04T23:01:32;16.81;81.41
65864;SHT30;52639;51.180;20.460;2022-07-04T23:05:34;16.75;81.57
65864;SHT30;52639;51.180;20.460;2022-07-04T23:09:37;16.62;81.77
65864;SHT30;52639;51.180;20.460;2022-07-04T23:13:41;16.57;81.87
65864;SHT30;52639;51.180;20.460;2022-07-04T23:17:44;16.48;82.03
65864;SHT30;52639;51.180;20.460;2022-07-04T23:21:46;16.42;82.14
65864;SHT30;52639;51.180;20.460;2022-07-04T23:25:49;16.35;82.22
65864;SHT30;52639;51.180;20.460;2022-07-04T23:29:53;16.30;82.26
65864;SHT30;52639;51.180;20.460;2022-07-04T23:33:55;16.25;82.30
65864;SHT30;52639;51.180;20.460;2022-07-04T23:37:58;16.29;82.22
65864;SHT30;52639;51.180;20.460;2022-07-04T23:42:01;16.26;82.30
65864;SHT30;52639;51.180;20.460;2022-07-04T23:46:07;16.21;82.45
65864;SHT30;52639;51.180;20.460;2022-07-04T23:50:09;16.19;82.37
65864;SHT30;52639;51.180;20.460;2022-07-04T23:54:12;16.26;82.31
65864;SHT30;52639;51.180;20.460;2022-07-04T23:58:14;16.28;82.24
